Time;durP1;ratioP1;P1;durP2;ratioP2;P2;SDS_P1;SDS_P2;PMS_P1;PMS_P2;Temp;Humidity;BMP_temperature;BMP_pressure;BME280_temperature;BME280_humidity;BME280_pressure;Samples;Min_cycle;Max_cycle;Signal;HPM_P1;HPM_P2
2021/04/28 00:01:33;;;;;;;10.23;6.30;;;12.70;55.00;;;;;;5032820;28;20087;-86
2021/04/28 00:03:59;;;;;;;8.17;5.67;;;12.60;55.20;;;;;;5033021;28;20116;-86
2021/04/28 00:06:24;;;;;;;14.03;7.30;;;12.60;55.30;;;;;;5035818;28;20032;-86
2021/04/28 00:08:50;;;;;;;10.57;6.87;;;12.60;55.30;;;;;;5034094;28;20024;-86
2021/04/28 00:11:16;;;;;;;11.63;6.97;;;12.60;55.40;;;;;;5053268;28;20025;-86
2021/04/28 00:13:41;;;;;;;8.40;6.37;;;12.50;55.30;;;;;;5052466;28;20083;-86
2021/04/28 00:16:07;;;;;;;10.20;6.47;;;12.50;55.50;;;;;;5035690;28;20025;-86
2021/04/28 00:18:33;;;;;;;7.33;5.70;;;12.50;55.70;;;;;;5041416;28;20025;-86
2021/04/28 00:20:59;;;;;;;8.93;5.97;;;12.50;55.60;;;;;;5026689;28;20025;-86
2021/04/28 00:23:25;;;;;;;9.07;6.20;;;12.50;55.40;;;;;;5048335;28;20044;-85
2021/04/28 00:25:51;;;;;;;7.77;5.57;;;12.60;55.40;;;;;;5034772;28;20116;-85
2021/04/28 00:28:17;;;;;;;9.50;5.70;;;12.60;55.20;;;;;;5034861;28;20045;-85
2021/04/28 00:30:42;;;;;;;11.87;6.17;;;12.70;55.00;;;;;;5035083;28;20067;-86
2021/04/28 00:33:08;;;;;;;11.60;5.67;;;12.60;54.90;;;;;;5048497;28;20021;-86
2021/04/28 00:35:34;;;;;;;8.97;5.87;;;12.60;55.10;;;;;;5034490;28;20030;-86
2021/04/28 00:38:00;;;;;;;8.93;5.53;;;12.50;55.10;;;;;;5034033;28;20384;-86
2021/04/28 00:40:35;;;;;;;12.40;6.00;;;12.50;55.20;;;;;;5034603;28;20036;-86
2021/04/28 00:43:01;;;;;;;10.50;5.57;;;12.50;55.30;;;;;;5048346;28;20033;-86
2021/04/28 00:45:29;;;;;;;8.97;6.47;;;12.50;55.40;;;;;;5035170;28;20028;-86
2021/04/28 00:47:57;;;;;;;14.13;6.17;;;12.50;55.40;;;;;;5034164;28;20025;-86
2021/04/28 00:50:36;;;;;;;10.07;6.10;;;12.50;55.30;;;;;;5035217;28;20043;-86
2021/04/28 00:53:03;;;;;;;10.00;6.43;;;12.50;55.10;;;;;;5029481;28;20029;-86
2021/04/28 00:55:30;;;;;;;7.00;5.70;;;12.50;54.90;;;;;;5032267;28;20029;-86
2021/04/28 00:57:56;;;;;;;10.27;6.20;;;12.60;54.90;;;;;;5035078;28;20112;-86
2021/04/28 01:00:23;;;;;;;10.27;6.23;;;12.60;55.00;;;;;;5035103;28;20028;-86
2021/04/28 01:02:49;;;;;;;12.47;6.40;;;12.50;55.00;;;;;;5037733;28;20021;-86
2021/04/28 01:05:17;;;;;;;9.70;6.00;;;12.50;55.10;;;;;;5038686;28;20748;-86
2021/04/28 01:07:45;;;;;;;9.00;5.67;;;12.30;55.20;;;;;;5038336;28;20386;-85
2021/04/28 01:10:15;;;;;;;11.20;6.63;;;12.30;55.40;;;;;;5038079;28;20049;-86
2021/04/28 01:12:41;;;;;;;9.27;6.50;;;12.20;55.70;;;;;;5032764;28;20442;-86
2021/04/28 01:15:14;;;;;;;9.27;6.60;;;12.20;56.00;;;;;;5038722;28;20094;-85
2021/04/28 01:17:40;;;;;;;8.33;6.20;;;12.10;56.10;;;;;;5055281;28;20029;-86
2021/04/28 01:20:09;;;;;;;10.67;6.80;;;12.00;56.20;;;;;;5038508;28;20033;-86
2021/04/28 01:22:39;;;;;;;9.23;6.63;;;12.00;56.40;;;;;;5022130;28;20548;-86
2021/04/28 01:25:07;;;;;;;9.83;6.47;;;11.90;56.60;;;;;;5040524;28;20044;-85
2021/04/28 01:27:35;;;;;;;11.50;6.60;;;11.90;56.60;;;;;;5039630;28;20025;-87
2021/04/28 01:30:02;;;;;;;10.33;6.10;;;11.90;56.60;;;;;;5039884;28;20025;-86
2021/04/28 01:32:29;;;;;;;8.07;5.57;;;12.00;56.50;;;;;;5037657;28;20179;-86
2021/04/28 01:34:55;;;;;;;10.77;6.50;;;11.90;56.40;;;;;;5038511;28;20036;-86
2021/04/28 01:37:23;;;;;;;10.93;6.93;;;11.90;56.60;;;;;;5038160;28;20036;-86
2021/04/28 01:39:50;;;;;;;11.17;6.90;;;11.80;56.70;;;;;;5037360;28;20021;-86
2021/04/28 01:42:17;;;;;;;11.00;7.23;;;11.80;56.80;;;;;;5037464;28;20538;-86
2021/04/28 01:44:43;;;;;;;12.47;5.23;;;11.70;56.90;;;;;;5038097;28;20424;-86
2021/04/28 01:47:10;;;;;;;10.10;6.10;;;11.70;57.00;;;;;;5038088;28;20025;-86
2021/04/28 01:49:37;;;;;;;6.97;5.03;;;11.70;57.00;;;;;;5031923;28;20048;-86
2021/04/28 01:52:03;;;;;;;9.80;5.20;;;11.70;56.80;;;;;;5049503;28;20473;-86
2021/04/28 01:54:29;;;;;;;9.40;5.83;;;11.60;56.80;;;;;;5020673;28;20389;-86
2021/04/28 01:56:56;;;;;;;11.03;5.80;;;11.70;56.80;;;;;;5028413;28;20033;-86
2021/04/28 01:59:23;;;;;;;8.43;5.77;;;11.60;56.70;;;;;;5026528;28;20674;-85
2021/04/28 02:01:52;;;;;;;7.77;5.83;;;11.60;56.70;;;;;;5035023;28;20021;-85
2021/04/28 02:04:18;;;;;;;6.90;5.40;;;11.60;56.90;;;;;;5036263;28;20082;-85
2021/04/28 02:06:45;;;;;;;9.27;6.07;;;11.40;56.90;;;;;;5042119;28;20049;-85
2021/04/28 02:09:11;;;;;;;8.57;5.80;;;11.30;57.20;;;;;;5037223;28;20048;-86
2021/04/28 02:11:37;;;;;;;10.07;5.03;;;11.30;57.20;;;;;;5037250;28;20033;-86
2021/04/28 02:14:05;;;;;;;7.17;5.43;;;11.40;57.10;;;;;;5036557;28;20143;-85
2021/04/28 02:16:33;;;;;;;9.03;6.10;;;11.40;57.20;;;;;;5033200;28;20342;-85
2021/04/28 02:19:04;;;;;;;10.77;6.07;;;11.30;57.20;;;;;;5021948;28;20075;-84
2021/04/28 02:21:30;;;;;;;9.53;6.43;;;11.30;57.20;;;;;;5041490;28;20403;-85
2021/04/28 02:23:56;;;;;;;7.97;5.50;;;11.30;57.20;;;;;;5036046;28;20029;-85
2021/04/28 02:26:22;;;;;;;9.50;5.63;;;11.30;57.30;;;;;;5035780;28;20075;-85
2021/04/28 02:28:48;;;;;;;10.40;6.60;;;11.20;57.40;;;;;;5022245;28;20391;-85
2021/04/28 02:31:13;;;;;;;11.80;6.20;;;11.10;57.50;;;;;;5031151;28;20047;-84
2021/04/28 02:33:39;;;;;;;11.70;6.97;;;11.10;57.70;;;;;;5035988;28;20078;-84
2021/04/28 02:36:06;;;;;;;8.97;6.27;;;11.00;58.00;;;;;;5053800;28;20503;-85
2021/04/28 02:38:59;;;;;;;12.57;9.47;;;11.00;58.10;;;;;;5034919;28;20043;-85
2021/04/28 02:41:25;;;;;;;8.30;6.63;;;11.00;58.30;;;;;;5025661;28;20036;-84
2021/04/28 02:43:52;;;;;;;13.17;6.50;;;10.90;58.20;;;;;;5036827;28;20054;-84
2021/04/28 02:46:20;;;;;;;9.10;6.40;;;10.90;58.40;;;;;;5053393;28;20032;-85
2021/04/28 02:48:48;;;;;;;9.23;6.43;;;10.80;58.60;;;;;;5035650;28;20025;-84
2021/04/28 02:51:14;;;;;;;9.40;6.07;;;10.80;58.70;;;;;;5036048;28;20029;-85
2021/04/28 02:53:45;;;;;;;8.10;5.70;;;10.80;58.70;;;;;;5025836;28;20635;-85
2021/04/28 02:56:12;;;;;;;6.90;5.93;;;10.80;58.60;;;;;;5035414;28;20028;-84
2021/04/28 02:58:40;;;;;;;9.77;6.33;;;10.70;58.60;;;;;;5035613;28;20025;-84
2021/04/28 03:01:08;;;;;;;9.93;7.30;;;10.70;58.60;;;;;;5035980;28;20045;-84
2021/04/28 03:03:34;;;;;;;12.00;8.40;;;10.70;59.40;;;;;;5053154;28;20029;-84
2021/04/28 03:06:03;;;;;;;11.03;7.57;;;10.70;59.10;;;;;;5036165;28;20372;-85
2021/04/28 03:08:29;;;;;;;9.00;7.17;;;10.60;59.30;;;;;;5032625;28;20597;-85
2021/04/28 03:10:55;;;;;;;10.20;7.43;;;10.60;59.40;;;;;;5034035;28;20037;-85
2021/04/28 03:13:21;;;;;;;10.80;8.10;;;10.60;59.40;;;;;;5030122;28;20108;-84
2021/04/28 03:15:49;;;;;;;10.13;7.10;;;10.60;59.40;;;;;;5030993;28;20053;-85
2021/04/28 03:18:16;;;;;;;8.43;6.33;;;10.50;59.10;;;;;;5031440;28;20034;-85
2021/04/28 03:20:45;;;;;;;15.77;7.93;;;10.40;59.40;;;;;;5016040;28;20037;-85
2021/04/28 03:23:12;;;;;;;17.13;9.30;;;10.40;59.50;;;;;;5025301;28;20026;-85
2021/04/28 03:25:40;;;;;;;12.83;7.77;;;10.40;59.60;;;;;;5016086;28;20018;-84
2021/04/28 03:28:06;;;;;;;12.67;8.00;;;10.40;59.70;;;;;;5028773;28;20115;-84
2021/04/28 03:30:32;;;;;;;12.57;8.17;;;10.40;59.70;;;;;;5031843;28;20021;-85
2021/04/28 03:32:57;;;;;;;10.67;7.60;;;10.40;59.80;;;;;;5033149;28;20547;-84
2021/04/28 03:35:23;;;;;;;12.00;8.67;;;10.30;60.40;;;;;;5031738;28;20108;-85
2021/04/28 03:37:49;;;;;;;12.40;7.80;;;10.30;59.90;;;;;;5031023;28;20083;-84
2021/04/28 03:40:15;;;;;;;16.90;9.00;;;10.30;59.80;;;;;;5026357;28;20097;-85
2021/04/28 03:42:40;;;;;;;10.70;8.43;;;10.20;60.00;;;;;;5029970;28;20116;-85
2021/04/28 03:45:06;;;;;;;12.27;7.50;;;10.30;60.30;;;;;;5032543;28;20100;-84
2021/04/28 03:47:33;;;;;;;13.00;8.83;;;10.10;60.20;;;;;;5030958;28;20021;-85
2021/04/28 03:49:59;;;;;;;14.07;9.70;;;10.10;60.30;;;;;;5025355;28;20075;-85
2021/04/28 03:52:25;;;;;;;15.43;9.20;;;10.20;60.50;;;;;;5031745;28;20052;-85
2021/04/28 03:54:51;;;;;;;14.67;9.23;;;10.10;60.80;;;;;;5031631;28;20467;-84
2021/04/28 03:57:17;;;;;;;12.17;9.43;;;10.10;60.80;;;;;;5024948;28;20072;-85
2021/04/28 03:59:42;;;;;;;12.90;8.87;;;10.10;60.80;;;;;;5024900;28;20052;-86
2021/04/28 04:02:09;;;;;;;10.53;8.60;;;10.10;60.70;;;;;;5030988;28;20029;-85
2021/04/28 04:04:35;;;;;;;11.93;8.30;;;10.10;60.90;;;;;;5024311;28;20025;-84
2021/04/28 04:07:01;;;;;;;13.57;7.70;;;10.10;60.80;;;;;;5026361;28;20136;-85
2021/04/28 04:09:27;;;;;;;14.60;8.60;;;10.00;60.80;;;;;;5024929;28;20096;-85
2021/04/28 04:11:53;;;;;;;14.43;8.30;;;10.10;60.60;;;;;;5026477;28;20022;-84
2021/04/28 04:14:19;;;;;;;13.07;8.33;;;10.10;60.50;;;;;;5025323;28;20032;-85
2021/04/28 04:16:46;;;;;;;10.27;6.93;;;10.00;60.60;;;;;;5023998;28;20025;-85
2021/04/28 04:19:12;;;;;;;15.23;8.97;;;10.00;60.80;;;;;;5017814;28;20026;-86
2021/04/28 04:21:39;;;;;;;11.60;7.97;;;10.00;60.80;;;;;;5024252;28;20032;-85
2021/04/28 04:24:06;;;;;;;11.67;8.90;;;10.00;60.80;;;;;;5023534;28;20021;-85
2021/04/28 04:26:31;;;;;;;15.30;9.40;;;10.00;60.90;;;;;;5022538;28;20018;-85
2021/04/28 04:28:57;;;;;;;14.43;9.37;;;9.90;60.90;;;;;;5020723;28;20026;-85
2021/04/28 04:31:23;;;;;;;12.07;8.90;;;9.90;61.00;;;;;;5023295;28;20018;-85
2021/04/28 04:33:49;;;;;;;14.07;8.13;;;9.80;61.30;;;;;;5022788;28;20519;-85
2021/04/28 04:36:14;;;;;;;9.90;7.80;;;9.90;61.40;;;;;;5022342;28;20034;-85
2021/04/28 04:38:40;;;;;;;10.63;7.27;;;9.90;61.20;;;;;;5030528;28;20021;-85
2021/04/28 04:41:06;;;;;;;19.37;10.63;;;9.90;61.20;;;;;;5026614;28;20087;-85
2021/04/28 04:43:32;;;;;;;14.83;9.07;;;9.90;61.50;;;;;;5031831;28;20022;-85
2021/04/28 04:45:57;;;;;;;12.77;8.33;;;9.90;61.60;;;;;;5021890;28;20500;-85
2021/04/28 04:48:23;;;;;;;13.77;8.43;;;9.90;61.30;;;;;;5027076;28;20037;-85
2021/04/28 04:50:49;;;;;;;14.23;8.53;;;9.90;61.50;;;;;;5028042;28;20493;-85
2021/04/28 04:53:15;;;;;;;11.43;8.20;;;9.90;61.50;;;;;;5022957;28;20125;-85
2021/04/28 04:55:40;;;;;;;11.67;8.27;;;9.90;61.20;;;;;;5027498;28;20101;-85
2021/04/28 04:58:06;;;;;;;14.00;9.07;;;10.00;61.20;;;;;;5030381;28;20025;-86
2021/04/28 05:00:33;;;;;;;16.47;9.07;;;10.00;61.90;;;;;;5031893;28;20029;-85
2021/04/28 05:03:02;;;;;;;10.27;7.57;;;10.00;61.60;;;;;;5026991;28;20048;-85
2021/04/28 05:05:28;;;;;;;10.57;7.57;;;10.00;61.60;;;;;;5010296;28;20088;-85
2021/04/28 05:07:54;;;;;;;13.30;7.73;;;10.00;61.40;;;;;;5027524;28;20049;-86
2021/04/28 05:10:20;;;;;;;20.10;9.27;;;10.00;61.50;;;;;;5027805;28;20116;-85
2021/04/28 05:12:46;;;;;;;16.40;8.23;;;10.00;61.40;;;;;;5023112;28;20033;-85
2021/04/28 05:15:15;;;;;;;13.77;8.27;;;10.10;61.40;;;;;;5027395;28;20036;-84
2021/04/28 05:17:41;;;;;;;14.60;8.90;;;10.10;61.60;;;;;;5027886;28;20038;-85
2021/04/28 05:20:08;;;;;;;14.53;8.83;;;10.00;61.60;;;;;;5025459;28;20030;-85
2021/04/28 05:22:34;;;;;;;16.87;9.87;;;10.10;61.60;;;;;;5023448;28;20421;-85
2021/04/28 05:25:00;;;;;;;12.43;9.10;;;10.10;61.40;;;;;;5032073;28;20371;-84
2021/04/28 05:27:26;;;;;;;14.57;9.50;;;10.10;61.50;;;;;;5028600;28;20032;-84
2021/04/28 05:29:53;;;;;;;16.60;9.23;;;10.20;61.70;;;;;;5025718;28;20052;-84
2021/04/28 05:32:19;;;;;;;16.63;9.97;;;10.20;61.70;;;;;;5035104;28;20060;-83
2021/04/28 05:34:45;;;;;;;14.40;9.63;;;10.20;61.90;;;;;;5019994;28;20126;-84
2021/04/28 05:37:13;;;;;;;17.57;11.50;;;10.20;61.90;;;;;;5026134;28;20103;-83
2021/04/28 05:39:42;;;;;;;13.70;10.00;;;10.30;61.90;;;;;;5030232;28;20091;-83
2021/04/28 05:42:08;;;;;;;17.43;9.40;;;10.30;62.00;;;;;;5033263;28;20037;-84
2021/04/28 05:44:33;;;;;;;13.30;9.33;;;10.40;61.90;;;;;;5031536;28;20080;-83
2021/04/28 05:47:00;;;;;;;15.27;9.10;;;10.50;61.90;;;;;;5031419;28;20022;-83
2021/04/28 05:49:26;;;;;;;18.33;9.00;;;10.50;61.70;;;;;;5027084;28;20437;-83
2021/04/28 05:51:51;;;;;;;14.60;8.57;;;10.60;61.50;;;;;;5022282;28;20033;-83
2021/04/28 05:54:17;;;;;;;15.37;9.23;;;10.60;61.30;;;;;;5022938;28;20033;-83
2021/04/28 05:56:43;;;;;;;13.00;9.10;;;10.60;61.30;;;;;;5020318;28;20045;-83
2021/04/28 05:59:09;;;;;;;13.90;9.40;;;10.70;61.30;;;;;;5028853;28;20113;-83
2021/04/28 06:01:35;;;;;;;18.17;11.30;;;10.70;61.30;;;;;;5031684;28;20033;-83
2021/04/28 06:04:01;;;;;;;17.10;11.50;;;10.70;61.40;;;;;;5021716;28;20456;-83
2021/04/28 06:06:27;;;;;;;22.27;12.40;;;10.70;61.40;;;;;;5037636;28;21746;-83
2021/04/28 06:08:53;;;;;;;23.70;10.97;;;10.70;61.70;;;;;;5038891;28;20025;-83
2021/04/28 06:11:19;;;;;;;20.93;10.93;;;10.70;61.80;;;;;;5052052;28;20460;-83
2021/04/28 06:13:46;;;;;;;16.80;11.00;;;10.80;61.80;;;;;;5037448;28;20132;-83
2021/04/28 06:16:17;;;;;;;18.60;10.87;;;10.90;61.60;;;;;;5045778;28;20079;-83
2021/04/28 06:18:43;;;;;;;14.97;10.60;;;10.90;61.40;;;;;;5030134;28;20032;-83
2021/04/28 06:21:10;;;;;;;18.63;10.77;;;10.90;61.20;;;;;;5032067;28;20033;-83
2021/04/28 06:23:37;;;;;;;19.20;11.07;;;11.00;61.30;;;;;;5033503;28;20393;-84
2021/04/28 06:26:04;;;;;;;17.97;11.43;;;11.00;61.30;;;;;;5051936;28;20100;-84
2021/04/28 06:28:30;;;;;;;14.93;10.47;;;11.10;61.20;;;;;;5032174;28;20025;-83
2021/04/28 06:30:56;;;;;;;15.20;10.17;;;11.10;61.00;;;;;;5034027;28;20059;-83
2021/04/28 06:33:22;;;;;;;18.47;10.40;;;11.20;61.10;;;;;;5028355;28;20037;-84
2021/04/28 06:35:48;;;;;;;17.40;10.37;;;11.20;60.70;;;;;;5029551;28;20140;-84
2021/04/28 06:38:14;;;;;;;17.33;9.80;;;11.20;60.70;;;;;;5047082;28;20408;-83
2021/04/28 06:40:40;;;;;;;16.77;11.77;;;11.30;60.80;;;;;;5034857;28;20025;-83
2021/04/28 06:43:06;;;;;;;31.83;16.37;;;11.30;60.80;;;;;;5035099;28;20083;-83
2021/04/28 06:45:34;;;;;;;18.47;11.27;;;11.30;61.30;;;;;;5052170;28;20028;-82
2021/04/28 06:48:01;;;;;;;17.07;10.50;;;11.30;60.70;;;;;;5042493;28;20695;-83
2021/04/28 06:50:40;;;;;;;17.63;10.07;;;11.40;60.80;;;;;;5036235;28;20032;-84
2021/04/28 06:53:05;;;;;;;16.10;10.63;;;11.40;60.90;;;;;;5034786;28;20117;-83
2021/04/28 06:55:31;;;;;;;13.63;10.20;;;11.50;60.80;;;;;;5036484;28;20163;-84
2021/04/28 06:57:57;;;;;;;17.93;11.30;;;11.50;60.70;;;;;;5026715;28;20599;-83
2021/04/28 07:00:27;;;;;;;16.70;9.97;;;11.50;60.70;;;;;;5031831;28;20029;-83
2021/04/28 07:02:57;;;;;;;13.43;9.73;;;11.60;60.60;;;;;;5027979;28;21799;-83
2021/04/28 07:05:25;;;;;;;17.80;9.43;;;11.60;60.80;;;;;;5052946;28;20113;-86
2021/04/28 07:07:52;;;;;;;14.60;10.03;;;11.80;60.70;;;;;;5016820;28;20046;-84
2021/04/28 07:10:18;;;;;;;15.90;9.47;;;11.90;60.30;;;;;;5041621;28;20025;-84
2021/04/28 07:12:44;;;;;;;15.27;9.80;;;12.10;60.10;;;;;;5035744;28;20071;-83
2021/04/28 07:15:10;;;;;;;15.43;9.30;;;12.10;59.80;;;;;;5035952;28;20033;-84
2021/04/28 07:17:37;;;;;;;15.23;9.30;;;12.30;59.50;;;;;;5034618;28;20025;-84
2021/04/28 07:20:07;;;;;;;12.17;8.67;;;12.50;59.50;;;;;;5041037;28;20025;-83
2021/04/28 07:22:34;;;;;;;11.63;8.73;;;12.70;59.50;;;;;;5027908;28;20036;-84
2021/04/28 07:25:00;;;;;;;17.63;9.90;;;12.90;59.30;;;;;;5029395;28;20027;-84
2021/04/28 07:27:26;;;;;;;14.77;9.53;;;13.20;58.70;;;;;;5037124;28;20021;-83
2021/04/28 07:29:52;;;;;;;14.67;9.43;;;13.50;58.40;;;;;;5025988;28;20439;-83
2021/04/28 07:32:18;;;;;;;21.63;9.93;;;13.60;57.80;;;;;;5023552;28;20037;-84
2021/04/28 07:34:44;;;;;;;14.67;8.77;;;13.80;57.70;;;;;;5031702;28;20496;-84
2021/04/28 07:37:10;;;;;;;12.87;9.13;;;14.00;57.20;;;;;;5031706;28;20033;-84
2021/04/28 07:39:37;;;;;;;11.13;8.77;;;14.10;57.00;;;;;;5052609;28;20025;-84
2021/04/28 07:42:03;;;;;;;13.20;8.87;;;14.30;56.50;;;;;;5034261;28;20035;-84
2021/04/28 07:44:30;;;;;;;11.67;8.13;;;14.40;56.20;;;;;;5034809;28;20464;-84
2021/04/28 07:46:57;;;;;;;18.40;8.90;;;14.40;55.90;;;;;;5043122;28;20477;-85
2021/04/28 07:49:23;;;;;;;15.63;7.67;;;14.60;55.60;;;;;;5031955;28;20029;-85
2021/04/28 07:51:53;;;;;;;14.10;8.27;;;14.70;55.40;;;;;;5026301;28;20481;-83
2021/04/28 07:54:20;;;;;;;14.27;8.20;;;14.90;54.90;;;;;;5025901;28;20150;-84
2021/04/28 07:56:47;;;;;;;14.87;8.40;;;15.20;54.70;;;;;;5052782;28;20048;-84
2021/04/28 07:59:14;;;;;;;16.53;9.17;;;15.40;54.20;;;;;;5034820;28;20025;-85
2021/04/28 08:01:41;;;;;;;15.50;8.13;;;15.50;53.60;;;;;;5020059;28;20037;-88
2021/04/28 08:04:10;;;;;;;11.77;8.10;;;15.60;53.50;;;;;;5036678;28;20029;-88
2021/04/28 08:06:36;;;;;;;16.97;8.67;;;15.90;52.90;;;;;;5034847;28;20068;-87
2021/04/28 08:09:04;;;;;;;10.37;7.40;;;16.00;52.00;;;;;;5033396;28;20029;-87
2021/04/28 08:11:29;;;;;;;11.93;7.03;;;16.20;51.50;;;;;;5031689;28;20024;-88
2021/04/28 08:13:55;;;;;;;13.67;7.57;;;16.30;51.10;;;;;;5034592;28;20024;-87
2021/04/28 08:16:21;;;;;;;17.20;6.93;;;16.50;50.50;;;;;;5033203;28;20025;-87
2021/04/28 08:18:48;;;;;;;8.35;5.68;;;16.60;50.00;;;;;;5033880;28;20032;-87
2021/04/28 08:21:15;;;;;;;11.60;7.25;;;16.60;49.10;;;;;;5033029;28;20033;-87
2021/04/28 08:23:42;;;;;;;8.35;6.00;;;16.80;48.50;;;;;;5033716;28;20056;-87
2021/04/28 08:26:09;;;;;;;10.45;6.82;;;16.80;47.70;;;;;;5027448;28;20028;-87
2021/04/28 08:28:41;;;;;;;11.52;6.43;;;16.90;47.00;;;;;;5052171;28;20480;-87
2021/04/28 08:31:08;;;;;;;15.88;6.50;;;16.90;46.60;;;;;;5034716;28;20028;-87
2021/04/28 08:33:34;;;;;;;13.38;7.07;;;17.00;46.50;;;;;;5034470;28;20037;-87
2021/04/28 08:36:00;;;;;;;9.70;6.43;;;17.20;46.30;;;;;;5035760;28;20032;-87
2021/04/28 08:38:26;;;;;;;7.30;5.97;;;17.40;46.00;;;;;;5037000;28;20021;-88
2021/04/28 08:40:58;;;;;;;11.15;6.85;;;17.50;45.60;;;;;;5035432;28;20459;-88
2021/04/28 08:43:24;;;;;;;;;;;17.50;45.00;;;;;;5036026;28;20501;-88
2021/04/28 08:45:51;;;;;;;9.00;6.07;;;17.50;45.40;;;;;;5034721;28;19915;-88
2021/04/28 08:48:18;;;;;;;7.97;5.50;;;17.50;45.20;;;;;;5052889;28;20025;-89
2021/04/28 08:50:46;;;;;;;11.95;6.00;;;17.50;45.60;;;;;;5030874;28;20562;-87
2021/04/28 08:53:14;;;;;;;9.57;5.85;;;17.60;45.90;;;;;;5052397;28;20021;-86
2021/04/28 08:55:40;;;;;;;9.07;5.45;;;17.80;45.60;;;;;;5031902;28;20018;-87
2021/04/28 08:58:06;;;;;;;7.28;5.90;;;17.90;45.60;;;;;;5047290;28;20025;-87
2021/04/28 09:00:36;;;;;;;8.27;5.90;;;18.00;45.80;;;;;;5041275;28;20112;-86
2021/04/28 09:03:02;;;;;;;9.90;5.93;;;18.10;45.40;;;;;;5042682;28;20481;-88
2021/04/28 09:05:30;;;;;;;8.02;5.78;;;18.20;44.70;;;;;;5033314;28;20492;-87
2021/04/28 09:07:56;;;;;;;8.75;4.93;;;18.20;44.10;;;;;;5030641;28;20045;-87
2021/04/28 09:10:26;;;;;;;9.35;5.35;;;18.20;43.90;;;;;;5030750;28;20021;-88
2021/04/28 09:12:59;;;;;;;8.40;4.80;;;18.40;43.40;;;;;;5028604;28;20106;-87
2021/04/28 09:15:38;;;;;;;9.77;5.15;;;18.50;43.20;;;;;;5031897;28;20052;-88
2021/04/28 09:18:09;;;;;;;6.05;5.15;;;18.70;43.00;;;;;;5021905;28;20482;-88
2021/04/28 09:20:38;;;;;;;9.27;4.95;;;18.80;42.60;;;;;;5030725;28;20033;-88
2021/04/28 09:23:15;;;;;;;7.65;4.82;;;18.90;41.90;;;;;;5026764;28;20206;-88
2021/04/28 09:25:52;;;;;;;8.38;4.63;;;19.00;41.80;;;;;;5027218;28;20032;-88
2021/04/28 09:28:24;;;;;;;10.20;5.20;;;19.00;42.00;;;;;;5031880;28;20051;-88
2021/04/28 09:30:55;;;;;;;8.98;4.70;;;19.20;42.40;;;;;;5028144;28;20026;-89
2021/04/28 09:33:21;;;;;;;12.75;5.20;;;19.40;42.40;;;;;;5027746;28;20500;-88
2021/04/28 09:35:58;;;;;;;9.05;4.60;;;19.60;42.20;;;;;;5034284;28;20148;-87
2021/04/28 09:38:24;;;;;;;8.80;4.72;;;19.70;41.90;;;;;;5035258;28;20060;-87
2021/04/28 09:40:57;;;;;;;7.20;4.28;;;19.80;42.30;;;;;;5036175;28;20029;-87
2021/04/28 09:43:35;;;;;;;6.28;4.50;;;20.00;42.20;;;;;;5032060;28;20543;-88
2021/04/28 09:46:01;;;;;;;7.35;4.35;;;20.10;42.50;;;;;;5044508;28;20029;-88
2021/04/28 09:48:27;;;;;;;8.38;5.20;;;20.30;43.30;;;;;;5023112;28;21050;-87
2021/04/28 09:51:08;;;;;;;10.30;4.95;;;20.40;42.00;;;;;;5027816;28;20109;-88
2021/04/28 09:53:35;;;;;;;7.95;4.47;;;20.50;42.10;;;;;;5028821;28;20469;-89
2021/04/28 09:56:01;;;;;;;12.73;4.85;;;20.60;42.00;;;;;;5034071;28;20473;-87
2021/04/28 09:58:52;;;;;;;10.38;5.15;;;20.90;41.60;;;;;;5028750;28;20079;-87
2021/04/28 10:01:35;;;;;;;9.02;4.85;;;21.10;41.70;;;;;;5025892;28;20058;-88
2021/04/28 10:04:03;;;;;;;7.45;4.45;;;21.20;41.30;;;;;;5016528;28;20022;-88
2021/04/28 10:06:49;;;;;;;8.38;4.10;;;21.40;40.70;;;;;;5023503;28;20083;-88
2021/04/28 10:09:35;;;;;;;6.55;4.00;;;21.40;40.10;;;;;;5033124;28;20036;-88
2021/04/28 10:12:07;;;;;;;5.55;3.92;;;21.50;40.00;;;;;;5038425;28;20013;-88
2021/04/28 10:14:37;;;;;;;7.70;3.90;;;21.60;39.60;;;;;;5039196;28;20029;-87
2021/04/28 10:17:04;;;;;;;5.97;3.95;;;21.80;39.40;;;;;;5037172;28;20124;-87
2021/04/28 10:19:31;;;;;;;7.13;4.28;;;21.90;39.10;;;;;;5033077;28;20390;-87
2021/04/28 10:22:01;;;;;;;5.15;3.83;;;22.00;39.20;;;;;;5037211;28;20025;-87
2021/04/28 10:24:28;;;;;;;8.82;3.95;;;22.10;38.70;;;;;;5037358;28;20110;-86
2021/04/28 10:26:55;;;;;;;7.63;3.88;;;22.20;38.20;;;;;;5035097;28;20030;-86
2021/04/28 10:29:21;;;;;;;6.85;3.90;;;22.30;37.80;;;;;;5031616;28;20028;-86
2021/04/28 10:31:51;;;;;;;7.78;3.45;;;22.40;37.90;;;;;;5037909;28;20535;-86
2021/04/28 10:34:24;;;;;;;6.28;3.60;;;22.60;37.40;;;;;;5035757;28;20025;-87
2021/04/28 10:36:55;;;;;;;9.50;3.35;;;22.60;37.00;;;;;;5057244;28;20029;-88
2021/04/28 10:39:24;;;;;;;5.10;3.38;;;22.70;36.90;;;;;;5038287;28;20507;-87
2021/04/28 10:41:52;;;;;;;7.32;3.25;;;22.90;36.50;;;;;;5037631;28;20120;-87
2021/04/28 10:44:30;;;;;;;6.72;3.08;;;23.00;36.20;;;;;;5054510;28;20488;-87
2021/04/28 10:47:14;;;;;;;7.75;3.28;;;23.10;35.60;;;;;;5037953;28;20620;-88
2021/04/28 10:50:23;;;;;;;4.57;3.33;;;23.20;35.50;;;;;;5036246;28;20035;-86
2021/04/28 10:53:09;;;;;;;5.13;3.13;;;23.30;35.80;;;;;;5020001;28;20026;-86
2021/04/28 10:56:03;;;;;;;5.97;3.22;;;23.30;35.50;;;;;;5036584;28;20033;-85
2021/04/28 10:58:40;;;;;;;5.80;3.17;;;23.40;35.50;;;;;;5057671;28;20025;-85
2021/04/28 11:01:06;;;;;;;6.97;3.25;;;23.50;35.20;;;;;;5037288;28;20272;-88
2021/04/28 11:03:45;;;;;;;4.10;2.78;;;23.50;34.90;;;;;;5034070;28;20052;-87
2021/04/28 11:06:20;;;;;;;9.55;3.22;;;23.50;34.50;;;;;;5020244;28;20030;-85
2021/04/28 11:09:03;;;;;;;5.82;3.15;;;23.50;34.20;;;;;;5034559;28;20057;-86
2021/04/28 11:11:35;;;;;;;3.92;2.45;;;23.50;33.70;;;;;;5165012;23;20360;-82
2021/04/28 11:14:11;;;;;;;4.80;2.80;;;23.60;33.40;;;;;;5048334;28;20037;-82
2021/04/28 11:16:39;;;;;;;5.47;3.00;;;23.60;33.00;;;;;;5037993;28;20378;-82
2021/04/28 11:19:17;;;;;;;5.20;2.80;;;23.60;33.40;;;;;;5051574;28;20067;-82
2021/04/28 11:21:44;;;;;;;6.13;3.10;;;23.70;33.00;;;;;;5033924;28;20029;-83
2021/04/28 11:24:16;;;;;;;5.00;2.85;;;23.70;32.80;;;;;;5034697;28;20039;-83
2021/04/28 11:26:52;;;;;;;4.20;3.00;;;23.80;32.70;;;;;;5035650;28;20024;-83
2021/04/28 11:29:19;;;;;;;5.00;2.50;;;23.80;32.60;;;;;;5017798;28;20425;-83
2021/04/28 11:31:48;;;;;;;4.07;2.50;;;23.90;32.60;;;;;;5035702;28;20474;-83
2021/04/28 11:34:26;;;;;;;6.25;2.33;;;24.10;32.00;;;;;;5031978;28;20028;-83
2021/04/28 11:36:55;;;;;;;5.03;2.40;;;24.20;31.40;;;;;;5025054;28;20025;-83
2021/04/28 11:39:36;;;;;;;4.00;2.47;;;24.20;31.30;;;;;;5036673;28;20025;-83
2021/04/28 11:42:12;;;;;;;5.63;2.08;;;24.20;31.10;;;;;;5050945;28;20025;-83
2021/04/28 11:44:44;;;;;;;4.63;2.15;;;24.20;30.90;;;;;;5026167;28;20025;-83
2021/04/28 11:47:13;;;;;;;5.30;2.25;;;24.10;30.70;;;;;;5028752;28;20395;-83
2021/04/28 11:49:41;;;;;;;6.95;2.47;;;24.20;30.40;;;;;;5051262;28;20021;-83
2021/04/28 11:52:07;;;;;;;5.03;1.90;;;24.40;30.50;;;;;;5029856;28;20490;-83
2021/04/28 11:54:34;;;;;;;2.90;2.33;;;24.50;30.60;;;;;;5029167;28;20029;-83
2021/04/28 11:56:59;;;;;;;4.18;2.42;;;24.50;30.20;;;;;;5031945;28;20036;-84
2021/04/28 11:59:32;;;;;;;7.03;2.33;;;24.60;30.00;;;;;;5034997;28;20029;-84
2021/04/28 12:02:03;;;;;;;4.22;1.88;;;24.40;29.80;;;;;;5030728;28;20036;-84
2021/04/28 12:04:33;;;;;;;3.03;1.55;;;24.20;29.90;;;;;;5033192;28;20071;-84
2021/04/28 12:07:00;;;;;;;2.83;1.88;;;24.20;29.60;;;;;;5034718;28;20051;-84
2021/04/28 12:09:39;;;;;;;5.55;2.03;;;24.30;29.60;;;;;;5052464;28;20773;-84
2021/04/28 12:12:20;;;;;;;4.15;1.92;;;24.50;29.30;;;;;;5052324;28;20198;-84
2021/04/28 12:14:52;;;;;;;4.30;2.22;;;24.60;29.20;;;;;;5018059;28;20048;-84
2021/04/28 12:17:19;;;;;;;;;;;24.40;28.70;;;;;;5052116;28;20796;-84
2021/04/28 12:19:46;;;;;;;6.03;1.75;;;24.20;29.30;;;;;;5036545;28;19913;-84
2021/04/28 12:22:12;;;;;;;3.83;1.92;;;24.00;29.40;;;;;;5031389;28;20036;-84
2021/04/28 12:24:47;;;;;;;6.38;2.25;;;23.90;29.50;;;;;;5033978;28;20029;-84
2021/04/28 12:27:21;;;;;;;8.13;2.35;;;23.90;29.40;;;;;;5052051;28;20021;-84
2021/04/28 12:29:53;;;;;;;8.73;2.15;;;23.90;29.50;;;;;;5034254;28;20474;-84
2021/04/28 12:32:20;;;;;;;4.13;1.67;;;24.10;29.20;;;;;;5050443;28;20058;-84
2021/04/28 12:34:48;;;;;;;3.03;1.90;;;24.20;28.90;;;;;;5034387;28;20036;-84
2021/04/28 12:37:16;;;;;;;5.07;1.90;;;24.30;28.90;;;;;;5034427;28;20021;-84
2021/04/28 12:39:58;;;;;;;10.25;1.73;;;24.30;28.70;;;;;;5030972;28;20080;-84
2021/04/28 12:42:33;;;;;;;5.75;1.50;;;24.10;28.50;;;;;;5034977;28;20032;-84
2021/04/28 12:45:03;;;;;;;2.28;1.33;;;23.80;27.90;;;;;;5034155;28;20052;-84
2021/04/28 12:47:34;;;;;;;5.35;2.75;;;23.80;27.80;;;;;;5052233;28;20380;-84